Terminal Aerodrome Forecast
Issued by NWS

Home | Current Version | Previous Version | Text Only | Print | Product List | Glossary On
Versions: 1 2 3 4 5 6 7 8 9 10 11 12 13 14 15 16
000
FTUS41 KBTV 020300 AAA
TAFMSS
TAF AMD
KMSS 020308Z 0203/0224 00000KT 5SM BR FEW050
      TEMPO 0203/0206 1SM BR SCT001 SCT050
     FM020600 VRB02KT 5SM BR FEW001 FEW050 FEW200
     FM021200 21004KT P6SM SCT050 SCT100
     FM021500 22005KT P6SM VCSH SCT050 SCT100=

USA.gov is the U.S. government's official web portal to all federal, state and local government web resources and services.